Time;durP1;ratioP1;P1;durP2;ratioP2;P2;SDS_P1;SDS_P2;PMS_P1;PMS_P2;Temp;Humidity;BMP_temperature;BMP_pressure;BME280_temperature;BME280_humidity;BME280_pressure;Samples;Min_cycle;Max_cycle;Signal;HPM_P1;HPM_P2
2023/10/12 00:01:59;;;;;;;13.68;2.17;;;32.60;38.90;;;;;;5055695;28;20373;-59
2023/10/12 00:04:35;;;;;;;18.75;2.42;;;32.60;38.70;;;;;;5059605;28;20393;-60
2023/10/12 00:07:25;;;;;;;18.98;2.33;;;32.60;39.00;;;;;;5060495;28;20024;-59
2023/10/12 00:10:12;;;;;;;19.75;2.60;;;32.60;38.90;;;;;;5058552;28;20016;-59
2023/10/12 00:12:45;;;;;;;18.85;2.13;;;32.50;39.00;;;;;;5066940;28;20074;-58
2023/10/12 00:15:28;;;;;;;19.27;2.70;;;32.50;38.80;;;;;;5065661;28;20168;-59
2023/10/12 00:17:58;;;;;;;16.75;2.03;;;32.40;38.70;;;;;;5058889;28;20062;-59
2023/10/12 00:20:35;;;;;;;11.50;1.88;;;32.40;38.60;;;;;;5054044;28;20493;-59
2023/10/12 00:23:09;;;;;;;19.27;2.53;;;32.30;38.50;;;;;;5057393;28;20470;-60
2023/10/12 00:25:46;;;;;;;16.45;2.25;;;32.20;38.80;;;;;;5059810;28;20020;-59
2023/10/12 00:28:19;;;;;;;13.00;2.60;;;32.10;38.90;;;;;;5055482;28;21346;-60
2023/10/12 00:30:47;;;;;;;21.15;2.80;;;32.00;39.10;;;;;;5061034;28;20036;-59
2023/10/12 00:33:14;;;;;;;19.90;2.50;;;32.00;39.20;;;;;;5055919;28;20534;-60
2023/10/12 00:35:40;;;;;;;23.05;2.63;;;32.00;39.10;;;;;;5053293;28;20024;-59
2023/10/12 00:38:23;;;;;;;20.33;2.30;;;31.90;38.60;;;;;;5062177;28;20091;-60
2023/10/12 00:41:03;;;;;;;19.02;2.58;;;31.90;38.60;;;;;;5058626;28;20028;-59
2023/10/12 00:43:41;;;;;;;20.60;2.30;;;31.80;38.50;;;;;;5064142;28;20031;-59
2023/10/12 00:46:21;;;;;;;18.88;2.42;;;31.80;38.40;;;;;;5069549;28;20031;-59
2023/10/12 00:49:13;;;;;;;27.67;3.17;;;31.70;38.50;;;;;;5052895;28;20029;-59
2023/10/12 00:51:37;;;;;;;16.02;2.70;;;31.70;38.90;;;;;;5061509;28;20469;-57
2023/10/12 00:54:04;;;;;;;14.90;2.65;;;31.60;38.90;;;;;;5060534;28;20033;-60
2023/10/12 00:56:31;;;;;;;23.45;2.85;;;31.50;38.90;;;;;;5060540;28;20009;-57
2023/10/12 00:58:57;;;;;;;24.08;3.08;;;31.40;39.10;;;;;;5054821;28;20431;-59
2023/10/12 01:01:24;;;;;;;32.85;3.63;;;31.40;39.20;;;;;;5060213;28;20021;-58
2023/10/12 01:03:52;;;;;;;20.48;3.38;;;31.40;40.10;;;;;;5066891;28;20024;-58
2023/10/12 01:06:28;;;;;;;15.63;2.70;;;31.20;40.00;;;;;;5059494;28;20017;-60
2023/10/12 01:08:59;;;;;;;11.10;2.50;;;31.20;39.80;;;;;;5063375;28;20161;-60
2023/10/12 01:11:26;;;;;;;24.20;2.85;;;31.10;40.40;;;;;;5064947;28;20051;-59
2023/10/12 01:16:41;;;;;;;24.95;3.10;;;31.00;40.50;;;;;;5061360;28;20017;-60
2023/10/12 01:19:09;;;;;;;17.75;2.55;;;31.00;40.80;;;;;;5052726;28;20023;-60
2023/10/12 01:21:36;;;;;;;23.15;3.35;;;30.90;41.10;;;;;;5057965;28;20606;-59
2023/10/12 01:24:13;;;;;;;19.27;3.40;;;30.80;41.20;;;;;;5057245;28;20468;-63
2023/10/12 01:26:44;;;;;;;26.85;9.02;;;30.70;41.30;;;;;;5066640;28;20024;-58
2023/10/12 01:29:20;;;;;;;18.10;6.82;;;30.70;41.30;;;;;;5066694;28;20066;-59
2023/10/12 01:31:53;;;;;;;18.35;4.85;;;30.60;41.50;;;;;;5063171;28;20484;-60
2023/10/12 01:34:24;;;;;;;24.40;4.97;;;30.60;42.00;;;;;;5061754;28;20040;-58
2023/10/12 01:36:55;;;;;;;22.98;3.40;;;30.50;42.00;;;;;;5059127;28;20055;-58
2023/10/12 01:39:22;;;;;;;24.45;3.95;;;30.40;41.80;;;;;;5060382;28;20497;-60
2023/10/12 01:41:51;;;;;;;18.58;4.00;;;30.40;41.60;;;;;;5067003;28;20025;-59
2023/10/12 01:44:18;;;;;;;24.05;4.35;;;30.30;41.60;;;;;;5061109;28;20017;-60
2023/10/12 01:46:49;;;;;;;27.63;4.03;;;30.30;41.70;;;;;;5053326;28;20096;-58
2023/10/12 01:49:19;;;;;;;26.88;3.63;;;30.20;41.70;;;;;;5053943;28;20039;-60
2023/10/12 01:51:45;;;;;;;23.05;4.03;;;30.10;41.90;;;;;;5059034;28;20404;-59
2023/10/12 01:54:21;;;;;;;30.15;4.15;;;30.10;42.20;;;;;;5065853;28;20377;-57
2023/10/12 01:56:51;;;;;;;20.85;4.93;;;30.00;42.10;;;;;;5061968;28;20024;-60
2023/10/12 01:59:21;;;;;;;25.42;4.28;;;30.00;42.20;;;;;;5055392;28;20036;-58
2023/10/12 02:01:59;;;;;;;27.20;4.47;;;29.90;42.60;;;;;;5049897;28;20078;-63
2023/10/12 02:04:26;;;;;;;25.70;3.97;;;29.90;42.90;;;;;;5061840;28;20032;-57
2023/10/12 02:06:52;;;;;;;34.28;5.22;;;29.80;43.60;;;;;;5057144;28;20056;-58
2023/10/12 02:09:22;;;;;;;27.60;5.75;;;29.70;42.90;;;;;;5063950;28;20020;-57
2023/10/12 02:11:54;;;;;;;20.58;4.80;;;29.70;42.80;;;;;;5052610;28;20052;-58
2023/10/12 02:14:33;;;;;;;22.38;6.35;;;29.60;42.90;;;;;;5061208;28;20008;-61
2023/10/12 02:17:04;;;;;;;20.80;5.57;;;29.60;43.00;;;;;;5053894;28;20419;-59
2023/10/12 02:19:43;;;;;;;21.27;4.90;;;29.50;43.10;;;;;;5060175;28;20024;-61
2023/10/12 02:22:32;;;;;;;20.88;4.28;;;29.40;43.20;;;;;;5058492;28;20670;-59
2023/10/12 02:25:01;;;;;;;22.08;4.55;;;29.30;43.50;;;;;;5056788;28;20021;-60
2023/10/12 02:27:28;;;;;;;19.30;3.90;;;29.20;43.40;;;;;;5058534;28;20037;-64
2023/10/12 02:29:56;;;;;;;13.07;3.92;;;29.20;43.50;;;;;;5062184;28;20017;-61
2023/10/12 02:32:24;;;;;;;19.63;3.95;;;29.00;43.40;;;;;;5057413;28;20021;-62
2023/10/12 02:35:00;;;;;;;18.48;3.88;;;29.00;43.60;;;;;;5056738;28;20035;-62
2023/10/12 02:37:27;;;;;;;16.55;4.05;;;28.90;43.70;;;;;;5053975;28;20055;-62
2023/10/12 02:39:54;;;;;;;13.30;4.20;;;28.90;43.70;;;;;;5059513;28;20017;-65
2023/10/12 02:42:38;;;;;;;13.23;3.92;;;28.80;43.90;;;;;;5055787;28;20039;-66
2023/10/12 02:47:42;;;;;;;17.83;4.00;;;28.70;44.40;;;;;;5064303;28;20033;-62
2023/10/12 02:52:37;;;;;;;14.35;4.60;;;28.50;44.80;;;;;;5053981;28;20188;-63
2023/10/12 02:55:49;;;;;;;15.52;4.00;;;28.50;45.40;;;;;;5056216;28;20017;-62
2023/10/12 02:58:19;;;;;;;17.80;3.70;;;28.40;44.90;;;;;;5056385;28;20514;-60
2023/10/12 03:00:47;;;;;;;11.50;3.58;;;28.30;45.10;;;;;;5061113;28;20025;-63
2023/10/12 03:05:58;;;;;;;16.20;4.70;;;28.20;45.00;;;;;;5047638;28;20013;-63
2023/10/12 03:08:30;;;;;;;19.00;5.03;;;28.10;45.30;;;;;;5049027;28;20041;-63
2023/10/12 03:11:09;;;;;;;15.63;4.35;;;28.00;45.50;;;;;;5059541;28;20040;-62
2023/10/12 03:13:37;;;;;;;21.58;5.53;;;28.00;45.60;;;;;;5051543;28;20025;-63
2023/10/12 03:16:13;;;;;;;16.98;4.90;;;27.90;45.80;;;;;;5059912;28;20005;-64
2023/10/12 03:18:42;;;;;;;17.30;5.20;;;27.90;46.00;;;;;;5056530;28;20108;-63
2023/10/12 03:21:11;;;;;;;15.32;5.00;;;27.90;46.40;;;;;;5053216;28;20033;-65
2023/10/12 03:23:40;;;;;;;16.50;4.50;;;27.80;46.40;;;;;;5051806;28;20028;-63
2023/10/12 03:29:10;;;;;;;19.27;4.20;;;27.70;46.80;;;;;;5049450;28;20106;-64
2023/10/12 03:31:58;;;;;;;12.25;3.97;;;27.70;47.10;;;;;;5048651;28;20013;-64
2023/10/12 03:34:57;;;;;;;14.00;4.38;;;27.60;47.70;;;;;;5064373;28;20035;-61
2023/10/12 03:37:18;;;;;;;17.63;4.10;;;27.50;48.10;;;;;;5061241;28;20100;-62
2023/10/12 03:44:54;;;;;;;19.57;4.33;;;27.30;48.90;;;;;;5051408;28;20031;-66
2023/10/12 03:52:39;;;;;;;18.08;4.18;;;27.10;49.30;;;;;;5066761;28;20024;-62
2023/10/12 03:58:00;;;;;;;22.20;4.15;;;27.00;49.60;;;;;;5059395;28;20077;-65
2023/10/12 04:03:35;;;;;;;17.98;4.70;;;26.90;49.60;;;;;;5036761;28;20389;-67
2023/10/12 04:06:15;;;;;;;12.52;4.60;;;26.80;49.90;;;;;;5057692;28;20017;-66
2023/10/12 04:08:54;;;;;;;21.08;4.38;;;26.70;50.00;;;;;;5062337;28;20091;-63
2023/10/12 04:14:43;;;;;;;17.45;5.03;;;26.70;49.90;;;;;;5051265;28;20449;-66
2023/10/12 04:17:19;;;;;;;17.42;5.10;;;26.60;50.00;;;;;;5065393;28;20049;-63
2023/10/12 04:20:00;;;;;;;15.80;4.72;;;26.60;49.80;;;;;;5065184;28;20017;-64
2023/10/12 04:22:26;;;;;;;21.05;4.43;;;26.50;50.10;;;;;;5061268;28;20024;-60
2023/10/12 04:24:56;;;;;;;16.40;4.45;;;26.50;50.10;;;;;;5052684;28;20013;-56
2023/10/12 04:29:57;;;;;;;22.23;4.60;;;26.30;50.30;;;;;;5069914;28;20022;-65
2023/10/12 04:32:53;;;;;;;12.90;4.40;;;26.30;50.40;;;;;;5052390;28;20013;-63
2023/10/12 04:38:45;;;;;;;14.93;5.10;;;26.30;50.70;;;;;;4988759;28;20023;-63
2023/10/12 04:46:47;;;;;;;14.30;4.60;;;26.10;51.20;;;;;;5020493;28;20035;-63
2023/10/12 04:52:08;;;;;;;16.60;4.57;;;26.00;51.70;;;;;;5061320;28;20005;-63
2023/10/12 04:54:49;;;;;;;18.63;5.32;;;25.90;51.70;;;;;;5060448;28;20017;-58
2023/10/12 04:57:16;;;;;;;15.48;4.53;;;25.90;52.00;;;;;;5060835;28;20051;-61
2023/10/12 05:07:29;;;;;;;13.43;4.45;;;25.70;52.50;;;;;;5058736;28;20595;-60
2023/10/12 05:09:55;;;;;;;11.98;4.15;;;25.70;52.60;;;;;;5057352;28;20032;-63
2023/10/12 05:12:23;;;;;;;17.92;4.95;;;25.60;52.70;;;;;;5061087;28;20024;-62
2023/10/12 05:15:11;;;;;;;18.88;4.70;;;25.60;52.90;;;;;;5052386;28;20024;-61
2023/10/12 05:17:37;;;;;;;15.50;5.10;;;25.60;53.00;;;;;;5055045;28;20044;-62
2023/10/12 05:20:03;;;;;;;16.45;4.63;;;25.60;53.10;;;;;;5054281;28;20509;-62
2023/10/12 05:22:30;;;;;;;15.38;4.43;;;25.60;53.10;;;;;;5058346;28;20017;-61
2023/10/12 05:24:56;;;;;;;20.42;5.57;;;25.60;53.00;;;;;;5058671;28;20047;-64
2023/10/12 05:27:28;;;;;;;16.92;4.80;;;25.60;53.10;;;;;;5058134;28;20090;-61
2023/10/12 05:30:05;;;;;;;19.92;5.10;;;25.50;53.10;;;;;;5054521;28;20024;-62
2023/10/12 05:32:43;;;;;;;16.48;5.05;;;25.50;53.40;;;;;;5055840;28;20330;-62
2023/10/12 05:35:15;;;;;;;20.15;5.82;;;25.50;53.40;;;;;;5058371;28;20021;-62
2023/10/12 05:37:49;;;;;;;15.63;5.28;;;25.40;53.40;;;;;;5057501;28;20051;-62
2023/10/12 05:40:17;;;;;;;15.02;4.85;;;25.40;53.70;;;;;;5055086;28;20032;-61
2023/10/12 05:42:46;;;;;;;20.90;4.80;;;25.40;54.10;;;;;;5054259;28;20025;-61
2023/10/12 05:45:27;;;;;;;14.55;3.88;;;25.30;54.30;;;;;;5058552;28;20012;-61
2023/10/12 05:47:53;;;;;;;20.10;9.13;;;25.30;54.30;;;;;;5054107;28;20029;-62
2023/10/12 05:50:23;;;;;;;16.35;7.70;;;25.20;54.50;;;;;;5059083;28;20369;-61
2023/10/12 05:52:59;;;;;;;25.38;9.32;;;25.20;54.70;;;;;;5064055;28;20005;-61
2023/10/12 05:55:27;;;;;;;21.02;4.78;;;25.20;54.90;;;;;;5058231;28;20017;-62
2023/10/12 05:58:03;;;;;;;16.80;4.30;;;25.10;54.90;;;;;;5060006;28;20079;-62
2023/10/12 06:00:36;;;;;;;13.88;4.10;;;25.10;55.00;;;;;;5052564;28;20033;-60
2023/10/12 06:03:07;;;;;;;17.85;5.03;;;25.00;55.00;;;;;;5055327;28;20388;-58
2023/10/12 06:05:34;;;;;;;15.65;4.28;;;24.90;55.20;;;;;;5056990;28;20094;-61
2023/10/12 06:08:01;;;;;;;16.05;4.25;;;24.90;55.40;;;;;;5054535;28;20043;-61
2023/10/12 06:10:31;;;;;;;15.90;4.10;;;24.90;55.30;;;;;;5058593;28;20067;-61
2023/10/12 06:12:58;;;;;;;16.65;4.55;;;24.90;55.40;;;;;;5062402;28;20054;-61
2023/10/12 06:15:25;;;;;;;18.83;4.50;;;24.90;55.60;;;;;;5060707;28;20056;-61
2023/10/12 06:17:55;;;;;;;17.35;4.57;;;24.80;55.70;;;;;;5056995;28;20480;-59
2023/10/12 06:23:08;;;;;;;14.13;4.35;;;24.70;56.10;;;;;;5058310;28;20031;-63
2023/10/12 06:25:39;;;;;;;14.80;3.83;;;24.70;56.30;;;;;;5055255;28;20017;-62
2023/10/12 06:28:17;;;;;;;13.23;4.57;;;24.70;56.20;;;;;;5052944;28;20028;-62
2023/10/12 06:30:46;;;;;;;14.25;4.43;;;24.60;56.20;;;;;;5055749;28;20017;-61
2023/10/12 06:33:17;;;;;;;17.25;3.97;;;24.60;56.30;;;;;;5054262;28;20023;-59
2023/10/12 06:36:00;;;;;;;16.92;4.63;;;24.50;56.30;;;;;;5051368;28;20025;-61
2023/10/12 06:41:40;;;;;;;17.75;4.28;;;24.50;56.20;;;;;;5053623;28;20444;-62
2023/10/12 06:44:22;;;;;;;16.15;4.80;;;24.50;56.20;;;;;;5054618;28;20137;-61
2023/10/12 06:46:49;;;;;;;14.98;4.55;;;24.30;56.10;;;;;;5054248;28;20060;-61
2023/10/12 06:49:30;;;;;;;25.30;4.95;;;24.40;56.20;;;;;;5055349;28;20025;-60
2023/10/12 06:52:03;;;;;;;12.45;4.30;;;24.40;56.30;;;;;;5053157;28;20016;-61
2023/10/12 07:00:17;;;;;;;14.50;4.57;;;24.40;56.80;;;;;;5042851;28;20341;-62
2023/10/12 07:02:43;;;;;;;13.57;3.65;;;24.30;57.00;;;;;;5059982;28;20071;-61
2023/10/12 07:05:10;;;;;;;31.00;5.07;;;24.20;57.50;;;;;;5052478;28;20458;-64
2023/10/12 07:07:43;;;;;;;19.20;4.07;;;24.20;57.90;;;;;;5058606;28;20016;-61
2023/10/12 07:12:45;;;;;;;15.15;3.75;;;24.20;58.20;;;;;;5053344;28;20112;-58
2023/10/12 07:15:14;;;;;;;13.57;3.85;;;24.20;58.30;;;;;;5058577;28;20067;-57
2023/10/12 07:18:05;;;;;;;13.63;3.33;;;24.30;58.30;;;;;;5058565;28;20096;-56
2023/10/12 07:23:14;;;;;;;15.88;3.70;;;24.40;58.00;;;;;;5053333;28;20031;-59
2023/10/12 07:25:49;;;;;;;17.50;4.07;;;24.30;57.90;;;;;;5057280;28;20043;-54
2023/10/12 07:28:18;;;;;;;16.25;3.85;;;24.30;57.90;;;;;;5058231;28;20158;-59
2023/10/12 07:33:32;;;;;;;13.65;4.20;;;24.40;57.90;;;;;;5059843;28;20018;-57
2023/10/12 07:36:11;;;;;;;15.73;7.60;;;24.40;57.90;;;;;;5058065;28;20378;-55
2023/10/12 07:38:37;;;;;;;35.00;20.73;;;24.40;57.70;;;;;;5050031;28;20028;-56
2023/10/12 07:41:05;;;;;;;28.70;19.90;;;24.40;57.90;;;;;;5053510;28;20066;-58
2023/10/12 07:43:32;;;;;;;29.88;21.10;;;24.40;57.70;;;;;;5051708;28;20012;-56
2023/10/12 07:46:14;;;;;;;14.50;4.15;;;24.40;57.70;;;;;;5053118;28;20083;-59
2023/10/12 07:48:44;;;;;;;23.60;12.65;;;24.30;58.20;;;;;;5054044;28;20028;-57
2023/10/12 07:51:30;;;;;;;13.32;3.90;;;24.20;58.50;;;;;;5052174;28;20075;-56
2023/10/12 07:54:00;;;;;;;14.93;4.07;;;24.10;58.60;;;;;;5050491;28;20052;-57
2023/10/12 07:56:34;;;;;;;12.00;3.88;;;24.00;59.00;;;;;;5055913;28;20017;-59
2023/10/12 07:59:01;;;;;;;14.38;4.07;;;24.00;59.20;;;;;;5050905;28;20045;-58
2023/10/12 08:03:58;;;;;;;13.10;3.47;;;24.00;59.50;;;;;;5055922;28;20020;-59
2023/10/12 08:09:20;;;;;;;;;;;23.90;59.20;;;;;;5057701;28;20488;-55
2023/10/12 08:11:47;;;;;;;13.00;3.83;;;24.00;59.60;;;;;;5054661;28;19905;-54
2023/10/12 08:15:08;;;;;;;12.75;3.97;;;24.00;59.60;;;;;;5052060;28;21219;-59
2023/10/12 08:19:44;;;;;;;15.38;4.20;;;23.90;60.10;;;;;;5051979;28;20126;-57
2023/10/12 08:22:26;;;;;;;18.35;4.72;;;23.90;60.40;;;;;;5053297;28;20020;-55
2023/10/12 08:24:57;;;;;;;15.00;3.83;;;23.80;60.70;;;;;;5055878;28;20059;-55
2023/10/12 08:27:25;;;;;;;14.73;3.88;;;23.80;61.00;;;;;;5053358;28;20071;-56
2023/10/12 08:32:34;;;;;;;15.60;4.15;;;23.70;61.30;;;;;;5054529;28;20025;-57
2023/10/12 08:37:27;;;;;;;16.50;3.85;;;23.70;61.10;;;;;;5055370;28;20028;-55
2023/10/12 08:45:00;;;;;;;14.18;3.67;;;23.80;60.80;;;;;;5053884;28;20020;-58
2023/10/12 08:50:47;;;;;;;13.30;3.90;;;23.70;60.70;;;;;;5057738;28;20438;-56
2023/10/12 08:53:03;;;;;;;16.80;4.05;;;23.70;60.80;;;;;;5055765;28;20438;-56
2023/10/12 08:55:31;;;;;;;17.65;4.18;;;23.80;61.30;;;;;;5053919;28;20440;-57
2023/10/12 08:58:20;;;;;;;20.85;3.95;;;23.70;61.00;;;;;;5055240;28;20074;-56
2023/10/12 09:03:29;;;;;;;12.88;4.03;;;23.70;61.00;;;;;;5056408;28;20477;-57
2023/10/12 09:05:58;;;;;;;13.90;3.45;;;23.70;61.10;;;;;;5055175;28;20495;-56
2023/10/12 09:11:13;;;;;;;16.25;4.40;;;23.70;60.80;;;;;;5058990;28;20016;-55
2023/10/12 09:13:47;;;;;;;17.20;3.97;;;23.70;60.80;;;;;;5057729;28;20032;-61
2023/10/12 09:16:18;;;;;;;17.67;4.32;;;23.60;60.90;;;;;;5056619;28;20380;-59
2023/10/12 09:18:49;;;;;;;19.17;3.97;;;23.60;61.20;;;;;;5055484;28;20021;-58
2023/10/12 09:26:34;;;;;;;20.92;4.63;;;23.50;61.70;;;;;;5055970;28;20477;-57
2023/10/12 09:36:53;;;;;;;15.75;4.35;;;23.50;61.70;;;;;;5054453;28;20037;-55
2023/10/12 09:39:27;;;;;;;23.52;4.35;;;23.50;61.70;;;;;;5053942;28;20555;-55
2023/10/12 09:42:22;;;;;;;15.85;4.05;;;23.50;61.60;;;;;;5052884;28;20029;-56
2023/10/12 09:44:41;;;;;;;16.15;4.35;;;23.50;61.70;;;;;;5053403;28;20033;-56
2023/10/12 09:47:15;;;;;;;16.48;4.03;;;23.40;61.70;;;;;;5053754;28;20028;-54
2023/10/12 09:49:54;;;;;;;9.95;3.75;;;23.40;61.90;;;;;;5052552;28;20025;-56
2023/10/12 09:52:23;;;;;;;20.00;4.38;;;23.40;62.00;;;;;;5053968;28;20415;-55
2023/10/12 09:55:00;;;;;;;17.00;4.30;;;23.40;62.00;;;;;;5052917;28;20456;-55
2023/10/12 09:57:26;;;;;;;;;;;23.40;62.20;;;;;;5054799;28;20426;-56
2023/10/12 09:59:54;;;;;;;15.75;3.60;;;23.40;62.20;;;;;;5053087;28;19916;-56
2023/10/12 10:02:33;;;;;;;12.57;4.07;;;23.30;62.20;;;;;;5057492;28;20024;-56
2023/10/12 10:05:27;;;;;;;14.10;3.60;;;23.30;61.90;;;;;;5055910;28;20876;-54
2023/10/12 10:08:04;;;;;;;17.73;3.78;;;23.30;62.00;;;;;;5052816;28;20077;-54
2023/10/12 10:10:33;;;;;;;19.30;4.15;;;23.30;62.10;;;;;;5055626;28;20036;-56
2023/10/12 10:13:14;;;;;;;13.75;3.50;;;23.30;61.80;;;;;;5054247;28;20009;-55
2023/10/12 10:15:56;;;;;;;21.80;4.55;;;23.40;61.60;;;;;;5052323;28;20017;-55
2023/10/12 10:18:25;;;;;;;21.23;4.28;;;23.40;62.00;;;;;;5053917;28;20120;-58
2023/10/12 10:20:56;;;;;;;11.25;3.42;;;23.30;62.00;;;;;;5054769;28;20032;-58
2023/10/12 10:23:28;;;;;;;19.70;4.35;;;23.20;62.00;;;;;;5052528;28;20059;-59
2023/10/12 10:29:04;;;;;;;17.05;4.47;;;23.20;62.20;;;;;;5052880;28;20051;-55
2023/10/12 10:31:36;;;;;;;20.55;4.55;;;23.20;62.80;;;;;;5055842;28;20036;-60
2023/10/12 10:34:13;;;;;;;15.75;4.40;;;23.10;62.50;;;;;;5055556;28;20020;-56
2023/10/12 10:36:44;;;;;;;20.65;4.40;;;23.00;62.90;;;;;;5052917;28;20013;-55
2023/10/12 10:41:54;;;;;;;19.02;3.97;;;23.00;63.70;;;;;;5053507;28;20017;-57
2023/10/12 10:44:22;;;;;;;17.70;4.07;;;23.00;63.70;;;;;;5055002;28;20381;-55
2023/10/12 10:47:27;;;;;;;16.38;4.10;;;23.00;63.90;;;;;;5053219;28;20210;-55
2023/10/12 10:49:48;;;;;;;20.85;4.43;;;22.90;63.80;;;;;;5052953;28;20122;-56
2023/10/12 10:52:20;;;;;;;23.45;5.00;;;22.90;63.90;;;;;;5052255;28;20047;-60
2023/10/12 10:54:59;;;;;;;18.23;4.13;;;22.90;64.10;;;;;;5055837;28;20028;-57
2023/10/12 10:57:31;;;;;;;14.23;4.20;;;22.90;64.00;;;;;;5054449;28;20124;-58
2023/10/12 10:59:58;;;;;;;19.33;4.20;;;22.90;63.60;;;;;;5050745;28;20509;-54
2023/10/12 11:02:24;;;;;;;17.98;4.32;;;22.80;64.00;;;;;;5052084;28;20079;-55
2023/10/12 11:04:59;;;;;;;18.90;4.13;;;22.80;63.40;;;;;;5053255;28;20013;-57
2023/10/12 11:07:26;;;;;;;12.40;3.65;;;22.80;63.50;;;;;;5051941;28;20092;-57
2023/10/12 11:12:30;;;;;;;14.70;4.13;;;22.70;63.90;;;;;;5060871;28;20041;-56
2023/10/12 11:15:00;;;;;;;18.30;3.70;;;22.80;63.60;;;;;;5059015;28;20012;-56
2023/10/12 11:17:35;;;;;;;21.58;3.95;;;22.80;63.40;;;;;;5056440;28;20132;-55
2023/10/12 11:20:08;;;;;;;16.05;4.07;;;22.80;63.30;;;;;;5056338;28;20032;-56
2023/10/12 11:22:37;;;;;;;18.50;4.00;;;22.80;63.30;;;;;;5054247;28;20009;-54
2023/10/12 11:25:15;;;;;;;10.88;3.60;;;22.80;63.30;;;;;;5059263;28;20015;-57
2023/10/12 11:27:42;;;;;;;21.13;4.65;;;22.70;63.40;;;;;;5056534;28;21106;-55
2023/10/12 11:30:18;;;;;;;13.98;3.17;;;22.70;63.80;;;;;;5055295;28;20084;-57
2023/10/12 11:32:53;;;;;;;11.13;3.63;;;22.80;63.60;;;;;;5058005;28;20024;-55
2023/10/12 11:35:40;;;;;;;10.85;3.90;;;22.80;63.80;;;;;;5057816;28;20021;-55
2023/10/12 11:38:17;;;;;;;;;;;22.70;63.90;;;;;;5056649;28;20103;-55
2023/10/12 11:40:57;;;;;;;19.83;4.13;;;22.70;64.00;;;;;;5058340;28;19912;-56
2023/10/12 11:43:44;;;;;;;28.05;4.35;;;22.70;64.10;;;;;;5051882;28;20024;-54
2023/10/12 11:46:14;;;;;;;21.98;4.30;;;22.70;63.90;;;;;;5052801;28;20077;-56
2023/10/12 11:48:40;;;;;;;17.65;4.30;;;22.60;64.30;;;;;;5053295;28;20036;-55
2023/10/12 11:51:11;;;;;;;24.70;5.18;;;22.60;64.40;;;;;;5051952;28;20017;-58
2023/10/12 11:53:39;;;;;;;16.85;4.28;;;22.60;64.80;;;;;;5076962;28;20041;-55
2023/10/12 11:56:17;;;;;;;19.60;4.55;;;22.60;64.90;;;;;;5054814;28;20005;-55
2023/10/12 11:58:51;;;;;;;15.35;4.32;;;22.60;64.60;;;;;;5053003;28;20072;-54
2023/10/12 12:01:18;;;;;;;18.15;4.47;;;22.50;64.50;;;;;;5056685;28;20128;-54
2023/10/12 12:03:45;;;;;;;18.58;4.32;;;22.40;64.90;;;;;;5057096;28;20388;-56
2023/10/12 12:06:18;;;;;;;15.30;4.10;;;22.40;65.20;;;;;;5060113;28;20035;-58
2023/10/12 12:08:59;;;;;;;16.60;4.22;;;22.30;65.70;;;;;;5059949;28;20427;-56
2023/10/12 12:11:31;;;;;;;14.32;3.97;;;22.30;65.70;;;;;;5055040;28;20024;-56
2023/10/12 12:13:58;;;;;;;17.13;4.32;;;22.20;65.70;;;;;;5054231;28;20376;-56
2023/10/12 12:16:24;;;;;;;19.08;3.50;;;22.20;66.00;;;;;;5054766;28;20083;-55
2023/10/12 12:18:52;;;;;;;16.77;4.15;;;22.10;66.30;;;;;;5055527;28;20017;-57
2023/10/12 12:21:29;;;;;;;19.88;4.07;;;22.10;66.20;;;;;;5054625;28;20052;-58
2023/10/12 12:24:21;;;;;;;;;;;22.10;66.40;;;;;;5055583;28;20024;-57
2023/10/12 12:26:53;;;;;;;15.55;4.13;;;22.00;66.70;;;;;;5057385;28;19905;-58
2023/10/12 12:29:26;;;;;;;21.23;4.75;;;21.90;66.90;;;;;;5053658;28;20086;-57
2023/10/12 12:31:54;;;;;;;15.77;4.55;;;21.90;67.10;;;;;;5052936;28;20392;-56
2023/10/12 12:34:41;;;;;;;21.75;4.50;;;21.90;67.50;;;;;;5058327;28;20009;-56
2023/10/12 12:37:08;;;;;;;14.60;3.75;;;21.90;67.30;;;;;;5053931;28;20100;-56
2023/10/12 12:39:35;;;;;;;22.13;4.40;;;21.90;67.50;;;;;;5055827;28;20503;-55
2023/10/12 12:42:02;;;;;;;20.63;5.15;;;21.90;67.50;;;;;;5057886;28;20024;-57
2023/10/12 12:44:29;;;;;;;23.27;4.80;;;21.80;67.40;;;;;;5058573;28;20384;-54
2023/10/12 12:46:56;;;;;;;24.00;4.57;;;21.70;67.20;;;;;;5057725;28;20536;-56
2023/10/12 12:49:24;;;;;;;26.90;5.47;;;21.70;67.70;;;;;;5058534;28;20104;-56
2023/10/12 12:51:51;;;;;;;19.90;4.55;;;21.70;67.90;;;;;;5055792;28;20092;-55
2023/10/12 12:54:17;;;;;;;18.85;4.88;;;21.70;67.60;;;;;;5056673;28;20469;-56
2023/10/12 12:56:44;;;;;;;26.25;5.22;;;21.70;67.70;;;;;;5055126;28;20017;-54
2023/10/12 12:59:10;;;;;;;18.25;4.78;;;21.70;67.90;;;;;;5058138;28;20074;-58
2023/10/12 13:01:39;;;;;;;24.63;4.70;;;21.60;68.00;;;;;;5055743;28;20070;-57
2023/10/12 13:04:05;;;;;;;22.23;4.30;;;21.60;67.90;;;;;;5055283;28;20040;-56
2023/10/12 13:06:35;;;;;;;22.80;4.20;;;21.60;68.40;;;;;;5056086;28;20016;-56
2023/10/12 13:09:04;;;;;;;18.90;4.97;;;21.50;68.50;;;;;;5055290;28;20064;-62
2023/10/12 13:11:32;;;;;;;19.20;4.70;;;21.50;68.40;;;;;;5055228;28;20021;-58
2023/10/12 13:13:58;;;;;;;19.73;4.70;;;21.60;68.70;;;;;;5056686;28;20024;-58
2023/10/12 13:16:25;;;;;;;24.83;4.95;;;21.50;68.70;;;;;;5054192;28;20055;-54
2023/10/12 13:18:51;;;;;;;26.58;4.63;;;21.50;68.90;;;;;;5054888;28;20017;-57
2023/10/12 13:21:22;;;;;;;23.27;5.18;;;21.60;68.90;;;;;;5058814;28;20025;-55
2023/10/12 13:23:49;;;;;;;18.85;4.60;;;21.50;68.80;;;;;;5057475;28;20504;-56
2023/10/12 13:26:21;;;;;;;19.95;4.70;;;21.50;69.20;;;;;;5057522;28;20040;-60
2023/10/12 13:28:54;;;;;;;25.42;4.90;;;21.40;69.30;;;;;;5060193;28;20028;-55
2023/10/12 13:31:23;;;;;;;18.15;4.32;;;21.40;69.60;;;;;;5058059;28;20005;-57
2023/10/12 13:33:51;;;;;;;22.65;5.18;;;21.40;69.60;;;;;;5058188;28;20032;-55
2023/10/12 13:36:18;;;;;;;31.00;5.35;;;21.40;69.80;;;;;;5052453;28;20028;-59
2023/10/12 13:38:45;;;;;;;32.90;5.30;;;21.40;69.60;;;;;;5055456;28;20024;-57
2023/10/12 13:41:11;;;;;;;20.58;5.22;;;21.30;70.10;;;;;;5055215;28;20066;-55
2023/10/12 13:43:38;;;;;;;25.05;4.28;;;21.40;70.20;;;;;;5060061;28;20021;-57
2023/10/12 13:46:12;;;;;;;24.17;4.97;;;21.30;70.50;;;;;;5054505;28;20066;-55
2023/10/12 13:48:40;;;;;;;31.33;5.68;;;21.30;70.50;;;;;;5056673;28;20025;-58
2023/10/12 13:51:20;;;;;;;31.17;6.15;;;21.30;70.90;;;;;;5061440;28;20414;-55
2023/10/12 13:53:49;;;;;;;27.65;5.82;;;21.30;70.90;;;;;;5057537;28;20009;-56
2023/10/12 13:56:16;;;;;;;25.67;5.68;;;21.30;70.80;;;;;;5059564;28;20063;-59
2023/10/12 13:58:47;;;;;;;40.55;6.45;;;21.30;70.80;;;;;;5061818;28;20059;-56
2023/10/12 14:01:21;;;;;;;34.78;6.28;;;21.30;70.80;;;;;;5061955;28;20115;-55
2023/10/12 14:04:00;;;;;;;38.38;7.05;;;21.30;71.30;;;;;;5060133;28;20021;-56
2023/10/12 14:06:30;;;;;;;33.05;6.55;;;21.30;71.10;;;;;;5059437;28;20021;-57
2023/10/12 14:08:58;;;;;;;43.50;6.88;;;21.30;71.20;;;;;;5060515;28;20116;-57
2023/10/12 14:11:25;;;;;;;30.45;6.00;;;21.30;71.30;;;;;;5056292;28;20521;-55
2023/10/12 14:13:51;;;;;;;32.75;5.72;;;21.30;71.10;;;;;;5060655;28;20012;-55
2023/10/12 14:16:18;;;;;;;38.22;6.03;;;21.40;71.20;;;;;;5058268;28;20044;-53
2023/10/12 14:18:44;;;;;;;30.08;6.35;;;21.40;71.00;;;;;;5064715;28;20066;-55
2023/10/12 14:21:11;;;;;;;43.92;6.28;;;21.40;71.40;;;;;;5058298;28;20052;-55
2023/10/12 14:23:45;;;;;;;40.88;4.82;;;21.50;71.20;;;;;;5065626;28;20051;-54
2023/10/12 14:26:22;;;;;;;27.58;5.43;;;21.40;71.00;;;;;;5051365;28;20052;-56
2023/10/12 14:28:55;;;;;;;29.98;5.85;;;21.40;71.90;;;;;;5051525;28;20029;-55
2023/10/12 14:31:22;;;;;;;41.28;7.10;;;21.50;72.20;;;;;;5062784;28;20059;-57
2023/10/12 14:33:51;;;;;;;41.40;9.02;;;21.50;71.80;;;;;;5056572;28;20013;-56
2023/10/12 14:36:18;;;;;;;38.75;6.43;;;21.60;71.70;;;;;;5056764;28;20044;-52
2023/10/12 14:38:45;;;;;;;31.55;5.90;;;21.70;71.00;;;;;;5060321;28;20013;-58
2023/10/12 14:41:16;;;;;;;38.90;5.65;;;21.80;70.20;;;;;;5059561;28;20100;-58
2023/10/12 14:43:47;;;;;;;43.78;6.88;;;21.80;70.30;;;;;;5054268;28;20028;-56
2023/10/12 14:46:14;;;;;;;33.50;6.68;;;21.90;69.70;;;;;;5067681;28;20522;-56
2023/10/12 14:48:43;;;;;;;28.77;6.75;;;21.90;69.20;;;;;;5048650;28;20083;-55
2023/10/12 14:53:36;;;;;;;43.28;6.53;;;22.10;68.40;;;;;;5053688;28;20075;-56
2023/10/12 14:56:03;;;;;;;34.83;6.82;;;22.20;67.70;;;;;;5053089;28;20100;-57
2023/10/12 14:58:31;;;;;;;31.55;7.15;;;22.30;67.00;;;;;;5053255;28;20480;-56
2023/10/12 15:00:57;;;;;;;41.50;7.45;;;22.40;66.00;;;;;;5050302;28;20045;-59
2023/10/12 15:03:26;;;;;;;42.45;7.22;;;22.30;65.60;;;;;;5049478;28;20017;-54
2023/10/12 15:05:59;;;;;;;39.90;6.13;;;22.40;64.70;;;;;;5054130;28;20050;-59
2023/10/12 15:08:26;;;;;;;33.58;6.22;;;22.60;64.70;;;;;;5052417;28;20068;-60